Time;durP1;ratioP1;P1;durP2;ratioP2;P2;SDS_P1;SDS_P2;PMS_P1;PMS_P2;Temp;Humidity;BMP_temperature;BMP_pressure;BME280_temperature;BME280_humidity;BME280_pressure;Samples;Min_cycle;Max_cycle;Signal;HPM_P1;HPM_P2
2022/03/08 00:02:22;;;;;;;3.28;1.80;;;;;;;;;;5027933;28;20121;-60
2022/03/08 00:04:49;;;;;;;3.20;1.60;;;;;;;;;;5011630;28;20041;-62
2022/03/08 00:07:15;;;;;;;2.78;2.47;;;;;;;;;;5028087;28;20037;-61
2022/03/08 00:09:41;;;;;;;3.05;1.73;;;;;;;;;;5027987;28;20395;-62
2022/03/08 00:12:07;;;;;;;3.17;1.85;;;;;;;;;;5029115;28;20029;-60
2022/03/08 00:14:34;;;;;;;3.88;2.25;;;;;;;;;;5029169;28;20046;-61
2022/03/08 00:17:00;;;;;;;2.78;2.13;;;;;;;;;;5027804;28;20119;-61
2022/03/08 00:19:26;;;;;;;3.45;1.90;;;;;;;;;;5028060;28;20055;-62
2022/03/08 00:21:52;;;;;;;3.17;2.20;;;;;;;;;;5029064;28;20045;-62
2022/03/08 00:24:19;;;;;;;2.65;1.40;;;;;;;;;;5027452;28;20037;-61
2022/03/08 00:26:45;;;;;;;3.35;1.85;;;;;;;;;;5028049;28;20136;-61
2022/03/08 00:29:11;;;;;;;4.40;2.53;;;;;;;;;;5027864;28;20037;-61
2022/03/08 00:31:37;;;;;;;2.80;2.40;;;;;;;;;;5027832;28;20499;-61
2022/03/08 00:34:04;;;;;;;3.65;2.55;;;;;;;;;;5028009;28;20049;-62
2022/03/08 00:36:31;;;;;;;3.72;1.95;;;;;;;;;;5027298;28;20052;-61
2022/03/08 00:38:57;;;;;;;3.05;2.00;;;;;;;;;;5027272;28;20463;-62
2022/03/08 00:41:24;;;;;;;3.95;2.55;;;;;;;;;;5027640;28;20041;-61
2022/03/08 00:43:51;;;;;;;4.15;2.47;;;;;;;;;;5027281;28;20046;-61
2022/03/08 00:46:17;;;;;;;3.22;1.95;;;;;;;;;;5033142;28;20530;-63
2022/03/08 00:48:43;;;;;;;4.18;2.40;;;;;;;;;;5027251;28;20051;-62
2022/03/08 00:51:10;;;;;;;3.85;2.67;;;;;;;;;;5029004;28;20124;-61
2022/03/08 00:53:36;;;;;;;4.88;3.15;;;;;;;;;;5025974;28;20045;-60
2022/03/08 00:56:02;;;;;;;5.90;2.65;;;;;;;;;;5043993;28;20398;-60
2022/03/08 00:58:28;;;;;;;5.95;3.53;;;;;;;;;;5027526;28;20111;-61
2022/03/08 01:00:54;;;;;;;4.40;2.90;;;;;;;;;;5028928;28;20037;-61
2022/03/08 01:03:21;;;;;;;5.40;3.45;;;;;;;;;;5025556;28;20113;-61
2022/03/08 01:05:47;;;;;;;5.88;3.47;;;;;;;;;;5027176;28;20145;-60
2022/03/08 01:08:14;;;;;;;3.47;2.00;;;;;;;;;;5028585;28;20510;-61
2022/03/08 01:10:40;;;;;;;4.07;3.30;;;;;;;;;;5027889;28;20045;-62
2022/03/08 01:13:07;;;;;;;4.85;4.32;;;;;;;;;;5026921;28;20040;-62
2022/03/08 01:15:33;;;;;;;7.07;3.90;;;;;;;;;;5025931;28;20052;-61
2022/03/08 01:17:59;;;;;;;5.43;3.72;;;;;;;;;;5028482;28;20037;-62
2022/03/08 01:20:26;;;;;;;6.35;4.85;;;;;;;;;;5026865;28;20041;-60
2022/03/08 01:22:52;;;;;;;5.40;4.03;;;;;;;;;;5027211;28;20048;-60
2022/03/08 01:25:20;;;;;;;6.13;5.18;;;;;;;;;;5027994;28;20039;-60
2022/03/08 01:27:46;;;;;;;5.68;4.45;;;;;;;;;;5028071;28;20046;-62
2022/03/08 01:30:13;;;;;;;5.35;4.43;;;;;;;;;;5058600;28;20043;-61
2022/03/08 01:32:41;;;;;;;5.07;4.57;;;;;;;;;;5027749;28;20049;-61
2022/03/08 01:35:07;;;;;;;7.57;5.32;;;;;;;;;;5026327;28;20050;-61
2022/03/08 01:37:33;;;;;;;7.38;5.72;;;;;;;;;;5027880;28;20046;-61
2022/03/08 01:39:59;;;;;;;8.23;5.93;;;;;;;;;;5027576;28;20048;-61
2022/03/08 01:42:26;;;;;;;8.27;6.05;;;;;;;;;;5027805;28;20091;-61
2022/03/08 01:44:53;;;;;;;7.85;6.28;;;;;;;;;;5027878;28;20407;-61
2022/03/08 01:47:23;;;;;;;7.38;5.88;;;;;;;;;;5026905;28;20042;-61
2022/03/08 01:49:50;;;;;;;7.55;6.18;;;;;;;;;;5025892;28;20067;-61
2022/03/08 01:52:17;;;;;;;8.57;6.40;;;;;;;;;;5025989;28;20104;-60
2022/03/08 01:54:45;;;;;;;7.60;5.22;;;;;;;;;;5026547;28;20133;-61
2022/03/08 01:57:12;;;;;;;9.20;6.03;;;;;;;;;;5027147;28;20060;-60
2022/03/08 01:59:38;;;;;;;6.10;4.47;;;;;;;;;;5026046;28;20045;-60
2022/03/08 02:02:05;;;;;;;8.95;6.35;;;;;;;;;;5025610;28;20072;-60
2022/03/08 02:04:31;;;;;;;8.60;6.63;;;;;;;;;;5025674;28;20038;-61
2022/03/08 02:06:57;;;;;;;7.70;6.30;;;;;;;;;;5025260;28;20045;-61
2022/03/08 02:09:23;;;;;;;8.20;7.40;;;;;;;;;;5026096;28;20555;-61
2022/03/08 02:11:50;;;;;;;7.68;6.95;;;;;;;;;;5007724;28;20084;-60
2022/03/08 02:14:16;;;;;;;6.30;5.15;;;;;;;;;;5026936;28;20041;-63
2022/03/08 02:16:42;;;;;;;9.60;8.20;;;;;;;;;;5025324;28;20049;-61
2022/03/08 02:19:12;;;;;;;7.90;7.10;;;;;;;;;;5026640;28;20036;-61
2022/03/08 02:21:38;;;;;;;8.82;6.93;;;;;;;;;;5026917;28;20567;-61
2022/03/08 02:24:04;;;;;;;8.77;6.72;;;;;;;;;;5025521;28;20041;-62
2022/03/08 02:26:33;;;;;;;9.32;6.53;;;;;;;;;;5026977;28;20033;-61
2022/03/08 02:29:01;;;;;;;6.63;4.65;;;;;;;;;;5027828;28;20072;-59
2022/03/08 02:31:27;;;;;;;9.80;6.90;;;;;;;;;;5025459;28;20045;-60
2022/03/08 02:33:53;;;;;;;5.10;4.60;;;;;;;;;;5009536;28;20049;-60
2022/03/08 02:36:19;;;;;;;7.68;6.07;;;;;;;;;;5028011;28;20120;-59
2022/03/08 02:38:45;;;;;;;6.20;5.20;;;;;;;;;;5026153;28;20368;-60
2022/03/08 02:41:11;;;;;;;7.45;6.07;;;;;;;;;;5025746;28;20036;-59
2022/03/08 02:43:38;;;;;;;7.60;6.70;;;;;;;;;;5026169;28;20053;-60
2022/03/08 02:46:04;;;;;;;11.07;7.65;;;;;;;;;;5023825;28;20548;-60
2022/03/08 02:48:31;;;;;;;8.23;6.55;;;;;;;;;;5027042;28;20060;-60
2022/03/08 02:50:58;;;;;;;10.02;7.07;;;;;;;;;;5027644;28;20684;-59
2022/03/08 02:53:24;;;;;;;9.35;7.22;;;;;;;;;;5026804;28;20068;-61
2022/03/08 02:55:50;;;;;;;9.85;7.40;;;;;;;;;;5025658;28;20041;-59
2022/03/08 02:58:16;;;;;;;8.93;7.65;;;;;;;;;;5026288;28;20048;-59
2022/03/08 03:00:43;;;;;;;11.43;8.20;;;;;;;;;;5030960;28;20037;-60
2022/03/08 03:03:09;;;;;;;12.95;9.52;;;;;;;;;;5029231;28;20065;-62
2022/03/08 03:05:36;;;;;;;12.25;8.93;;;;;;;;;;5029528;28;20418;-61
2022/03/08 03:08:02;;;;;;;12.30;9.05;;;;;;;;;;5030365;28;20045;-60
2022/03/08 03:10:29;;;;;;;14.75;9.80;;;;;;;;;;5030193;28;20468;-60
2022/03/08 03:12:56;;;;;;;15.15;8.40;;;;;;;;;;5028871;28;20049;-63
2022/03/08 03:15:23;;;;;;;15.07;10.40;;;;;;;;;;5030125;28;20037;-60
2022/03/08 03:17:49;;;;;;;15.98;10.80;;;;;;;;;;5029833;28;20041;-61
2022/03/08 03:20:16;;;;;;;14.32;9.90;;;;;;;;;;5030629;28;20041;-61
2022/03/08 03:22:43;;;;;;;17.20;11.65;;;;;;;;;;5028851;28;20048;-61
2022/03/08 03:25:09;;;;;;;16.98;11.32;;;;;;;;;;5030798;28;20041;-60
2022/03/08 03:27:35;;;;;;;19.00;11.77;;;;;;;;;;5030022;28;20470;-60
2022/03/08 03:30:02;;;;;;;21.60;12.70;;;;;;;;;;5028879;28;20037;-61
2022/03/08 03:32:29;;;;;;;18.77;12.88;;;;;;;;;;5028066;28;20146;-62
2022/03/08 03:34:55;;;;;;;24.17;13.68;;;;;;;;;;5026855;28;20538;-61
2022/03/08 03:37:23;;;;;;;18.85;13.10;;;;;;;;;;5030385;28;20103;-60
2022/03/08 03:39:50;;;;;;;18.35;13.38;;;;;;;;;;5011881;28;20071;-61
2022/03/08 03:42:16;;;;;;;20.48;12.20;;;;;;;;;;5027375;28;20033;-60
2022/03/08 03:44:42;;;;;;;20.48;14.13;;;;;;;;;;5028138;28;20046;-60
2022/03/08 03:47:08;;;;;;;20.77;13.75;;;;;;;;;;5028250;28;20712;-59
2022/03/08 03:49:35;;;;;;;19.60;14.07;;;;;;;;;;5029952;28;20040;-60
2022/03/08 03:52:01;;;;;;;19.40;13.48;;;;;;;;;;5028475;28;20088;-61
2022/03/08 03:54:27;;;;;;;20.55;13.85;;;;;;;;;;5011513;28;20037;-60
2022/03/08 03:56:53;;;;;;;20.58;14.48;;;;;;;;;;5044472;28;20050;-60
2022/03/08 03:59:19;;;;;;;18.90;13.98;;;;;;;;;;5028445;28;20034;-61
2022/03/08 04:01:45;;;;;;;20.45;14.50;;;;;;;;;;5029193;28;20125;-61
2022/03/08 04:04:11;;;;;;;21.90;14.93;;;;;;;;;;5028460;28;20046;-61
2022/03/08 04:06:37;;;;;;;20.60;15.13;;;;;;;;;;5027873;28;20049;-60
2022/03/08 04:09:04;;;;;;;21.70;15.65;;;;;;;;;;5027954;28;20530;-61
2022/03/08 04:11:30;;;;;;;19.63;14.82;;;;;;;;;;5028889;28;20045;-62
2022/03/08 04:13:56;;;;;;;20.23;15.48;;;;;;;;;;5029415;28;20038;-61
2022/03/08 04:16:22;;;;;;;19.02;15.60;;;;;;;;;;5027231;28;20056;-61
2022/03/08 04:18:48;;;;;;;21.02;14.20;;;;;;;;;;5027827;28;20045;-60
2022/03/08 04:21:14;;;;;;;19.08;14.15;;;;;;;;;;5029414;28;20045;-61
2022/03/08 04:23:41;;;;;;;18.08;14.07;;;;;;;;;;5028874;28;20120;-61
2022/03/08 04:26:07;;;;;;;17.70;13.88;;;;;;;;;;5027922;28;20514;-61
2022/03/08 04:28:33;;;;;;;19.20;13.82;;;;;;;;;;5027852;28;20045;-61
2022/03/08 04:30:59;;;;;;;19.38;13.30;;;;;;;;;;5027426;28;20041;-61
2022/03/08 04:33:25;;;;;;;19.05;14.40;;;;;;;;;;5027130;28;20470;-60
2022/03/08 04:35:51;;;;;;;19.88;15.48;;;;;;;;;;5028497;28;20049;-61
2022/03/08 04:38:17;;;;;;;17.98;13.70;;;;;;;;;;5027679;28;20484;-60
2022/03/08 04:40:43;;;;;;;18.95;14.23;;;;;;;;;;5027528;28;20045;-61
2022/03/08 04:43:09;;;;;;;26.52;14.73;;;;;;;;;;5027327;28;20520;-60
2022/03/08 04:45:41;;;;;;;21.40;14.18;;;;;;;;;;5011230;28;20522;-61
2022/03/08 04:48:07;;;;;;;19.60;13.45;;;;;;;;;;5027532;28;20038;-61
2022/03/08 04:50:33;;;;;;;21.45;14.63;;;;;;;;;;5028642;28;20116;-62
2022/03/08 04:52:59;;;;;;;21.17;15.48;;;;;;;;;;5027126;28;20037;-61
2022/03/08 04:55:25;;;;;;;20.90;15.45;;;;;;;;;;5010644;28;20048;-61
2022/03/08 04:57:51;;;;;;;23.48;15.10;;;;;;;;;;5028773;28;20064;-60
2022/03/08 05:00:17;;;;;;;20.40;15.10;;;;;;;;;;5027099;28;20522;-61
2022/03/08 05:02:45;;;;;;;24.25;15.02;;;;;;;;;;5026910;28;20072;-61
2022/03/08 05:05:12;;;;;;;19.42;14.93;;;;;;;;;;5028354;28;20549;-61
2022/03/08 05:07:38;;;;;;;18.00;14.60;;;;;;;;;;5026420;28;20073;-61
2022/03/08 05:10:05;;;;;;;22.33;15.05;;;;;;;;;;5010195;28;20050;-60
2022/03/08 05:12:31;;;;;;;20.00;14.07;;;;;;;;;;5028180;28;20175;-61
2022/03/08 05:14:58;;;;;;;21.67;14.35;;;;;;;;;;5026396;28;20041;-61
2022/03/08 05:17:24;;;;;;;20.55;14.65;;;;;;;;;;5008765;28;20049;-60
2022/03/08 05:19:50;;;;;;;23.58;15.68;;;;;;;;;;5026731;28;20424;-61
2022/03/08 05:22:16;;;;;;;21.20;15.13;;;;;;;;;;5025851;28;20042;-60
2022/03/08 05:24:42;;;;;;;22.25;16.00;;;;;;;;;;5010173;28;20033;-61
2022/03/08 05:27:09;;;;;;;21.50;15.43;;;;;;;;;;5025250;28;20041;-60
2022/03/08 05:29:35;;;;;;;23.00;16.25;;;;;;;;;;5025856;28;20049;-60
2022/03/08 05:32:01;;;;;;;20.33;15.70;;;;;;;;;;5026746;28;20045;-61
2022/03/08 05:34:28;;;;;;;22.48;15.88;;;;;;;;;;5026614;28;20044;-61
2022/03/08 05:36:55;;;;;;;20.95;15.18;;;;;;;;;;5027390;28;20083;-60
2022/03/08 05:39:22;;;;;;;22.25;16.02;;;;;;;;;;5026361;28;20566;-60
2022/03/08 05:41:48;;;;;;;21.30;15.77;;;;;;;;;;5027684;28;20045;-61
2022/03/08 05:44:14;;;;;;;22.10;15.73;;;;;;;;;;5026259;28;20106;-60
2022/03/08 05:46:40;;;;;;;24.75;16.55;;;;;;;;;;5025904;28;20049;-60
2022/03/08 05:49:06;;;;;;;23.13;15.95;;;;;;;;;;5027497;28;20407;-61
2022/03/08 05:51:32;;;;;;;23.45;15.68;;;;;;;;;;5009334;28;20092;-61
2022/03/08 05:53:58;;;;;;;23.65;15.77;;;;;;;;;;5026378;28;20049;-60
2022/03/08 05:56:24;;;;;;;23.58;15.05;;;;;;;;;;5024138;28;20484;-61
2022/03/08 05:58:50;;;;;;;22.80;14.68;;;;;;;;;;5027166;28;20068;-61
2022/03/08 06:01:16;;;;;;;25.90;16.42;;;;;;;;;;5026851;28;20046;-62
2022/03/08 06:03:43;;;;;;;24.27;16.65;;;;;;;;;;5025053;28;20041;-61
2022/03/08 06:06:09;;;;;;;25.85;17.48;;;;;;;;;;5025745;28;20044;-60
2022/03/08 06:08:35;;;;;;;31.88;21.45;;;;;;;;;;5025079;28;20034;-60
2022/03/08 06:11:01;;;;;;;30.85;22.77;;;;;;;;;;5025263;28;20049;-60
2022/03/08 06:13:27;;;;;;;36.03;23.88;;;;;;;;;;5026427;28;20041;-60
2022/03/08 06:15:53;;;;;;;31.45;22.10;;;;;;;;;;5024752;28;20287;-61
2022/03/08 06:18:19;;;;;;;30.88;19.65;;;;;;;;;;5026864;28;20099;-61
2022/03/08 06:20:45;;;;;;;30.27;18.45;;;;;;;;;;5025756;28;20045;-61
2022/03/08 06:23:12;;;;;;;31.42;21.08;;;;;;;;;;5025438;28;20124;-61
2022/03/08 06:25:40;;;;;;;26.67;16.70;;;;;;;;;;5026807;28;20041;-60
2022/03/08 06:28:07;;;;;;;26.42;17.38;;;;;;;;;;5025836;28;20403;-61
2022/03/08 06:30:34;;;;;;;26.40;18.70;;;;;;;;;;5009126;28;20049;-61
2022/03/08 06:33:00;;;;;;;26.92;19.23;;;;;;;;;;5024819;28;20041;-60
2022/03/08 06:35:26;;;;;;;28.35;19.38;;;;;;;;;;5025819;28;20052;-60
2022/03/08 06:37:52;;;;;;;25.58;19.85;;;;;;;;;;5025914;28;20069;-61
2022/03/08 06:40:18;;;;;;;28.52;18.95;;;;;;;;;;5025789;28;20041;-60
2022/03/08 06:42:44;;;;;;;25.60;18.58;;;;;;;;;;5025110;28;20470;-61
2022/03/08 06:45:10;;;;;;;23.73;19.10;;;;;;;;;;5027097;28;20045;-61
2022/03/08 06:47:38;;;;;;;27.48;19.10;;;;;;;;;;5026281;28;20049;-61
2022/03/08 06:50:04;;;;;;;23.48;18.88;;;;;;;;;;5026830;28;20050;-61
2022/03/08 06:52:30;;;;;;;24.58;18.00;;;;;;;;;;5026686;28;20056;-60
2022/03/08 06:54:56;;;;;;;26.58;18.25;;;;;;;;;;5024541;28;20076;-61
2022/03/08 06:57:22;;;;;;;27.35;19.10;;;;;;;;;;5024730;28;20049;-61
2022/03/08 06:59:48;;;;;;;26.23;18.20;;;;;;;;;;5024768;28;20061;-61
2022/03/08 07:02:14;;;;;;;25.92;16.88;;;;;;;;;;5024319;28;20037;-61
2022/03/08 07:04:41;;;;;;;25.90;16.05;;;;;;;;;;5025910;28;20045;-60
2022/03/08 07:07:07;;;;;;;25.92;18.85;;;;;;;;;;5024440;28;20052;-61
2022/03/08 07:09:33;;;;;;;32.20;21.25;;;;;;;;;;5024472;28;20049;-61
2022/03/08 07:11:59;;;;;;;36.75;21.88;;;;;;;;;;5026121;28;20471;-61
2022/03/08 07:14:25;;;;;;;24.85;17.52;;;;;;;;;;5040533;28;20094;-62
2022/03/08 07:16:51;;;;;;;25.95;16.85;;;;;;;;;;5025838;28;20126;-61
2022/03/08 07:19:18;;;;;;;21.58;14.50;;;;;;;;;;5006676;28;20038;-61
2022/03/08 07:21:45;;;;;;;25.83;15.90;;;;;;;;;;5025429;28;20045;-61
2022/03/08 07:24:11;;;;;;;27.20;16.05;;;;;;;;;;5026816;28;20491;-60
2022/03/08 07:26:37;;;;;;;22.27;16.00;;;;;;;;;;5025696;28;20495;-59
2022/03/08 07:29:04;;;;;;;24.27;16.75;;;;;;;;;;5026887;28;20350;-59
2022/03/08 07:31:30;;;;;;;26.13;17.67;;;;;;;;;;5026569;28;20045;-62
2022/03/08 07:33:56;;;;;;;22.55;15.13;;;;;;;;;;5026194;28;20399;-61
2022/03/08 07:36:22;;;;;;;19.40;14.60;;;;;;;;;;5024754;28;20124;-61
2022/03/08 07:38:49;;;;;;;20.98;15.27;;;;;;;;;;5025188;28;20528;-61
2022/03/08 07:41:15;;;;;;;22.77;14.25;;;;;;;;;;5025954;28;20099;-62
2022/03/08 07:43:41;;;;;;;21.02;14.18;;;;;;;;;;5023917;28;20372;-61
2022/03/08 07:46:09;;;;;;;20.90;13.10;;;;;;;;;;5029481;28;20046;-61
2022/03/08 07:48:35;;;;;;;18.25;12.55;;;;;;;;;;5030915;28;20483;-61
2022/03/08 07:51:01;;;;;;;20.73;13.15;;;;;;;;;;5029487;28;20118;-61
2022/03/08 07:53:27;;;;;;;16.02;11.82;;;;;;;;;;5029036;28;20034;-61
2022/03/08 07:55:54;;;;;;;17.10;11.55;;;;;;;;;;5030696;28;20406;-61
2022/03/08 07:58:20;;;;;;;19.83;11.60;;;;;;;;;;5030637;28;20372;-60
2022/03/08 08:00:46;;;;;;;13.23;10.95;;;;;;;;;;5028780;28;20049;-63
2022/03/08 08:03:12;;;;;;;13.98;10.13;;;;;;;;;;5029174;28;20041;-60
2022/03/08 08:05:39;;;;;;;15.77;10.15;;;;;;;;;;5028637;28;20072;-60
2022/03/08 08:08:05;;;;;;;16.00;10.02;;;;;;;;;;5029018;28;20345;-62
2022/03/08 08:10:32;;;;;;;11.02;8.55;;;;;;;;;;5012035;28;20119;-62
2022/03/08 08:12:58;;;;;;;12.82;9.20;;;;;;;;;;5030198;28;20045;-61
2022/03/08 08:15:24;;;;;;;11.50;8.10;;;;;;;;;;5028529;28;20144;-59
2022/03/08 08:17:51;;;;;;;10.73;7.93;;;;;;;;;;5031559;28;20045;-61
2022/03/08 08:20:17;;;;;;;11.13;8.30;;;;;;;;;;5030773;28;20048;-59
2022/03/08 08:22:44;;;;;;;12.23;7.90;;;;;;;;;;5054208;28;20045;-60
2022/03/08 08:25:10;;;;;;;10.20;7.28;;;;;;;;;;5029842;28;20041;-59
2022/03/08 08:27:37;;;;;;;12.68;8.00;;;;;;;;;;5029582;28;20060;-60
2022/03/08 08:30:04;;;;;;;9.30;6.60;;;;;;;;;;5030797;28;20054;-60
2022/03/08 08:32:31;;;;;;;14.50;6.78;;;;;;;;;;5026066;28;20496;-59
2022/03/08 08:34:57;;;;;;;9.25;7.05;;;;;;;;;;5023605;28;20438;-60
2022/03/08 08:37:23;;;;;;;9.48;6.68;;;;;;;;;;5029511;28;20116;-60
2022/03/08 08:39:49;;;;;;;10.63;7.05;;;;;;;;;;5030331;28;20507;-60
2022/03/08 08:42:16;;;;;;;9.68;6.53;;;;;;;;;;5028323;28;20034;-59
2022/03/08 08:44:42;;;;;;;11.85;6.20;;;;;;;;;;5029802;28;20061;-61
2022/03/08 08:47:08;;;;;;;7.75;5.75;;;;;;;;;;5027387;28;20056;-61
2022/03/08 08:49:34;;;;;;;9.18;6.50;;;;;;;;;;5025929;28;20045;-62
2022/03/08 08:52:00;;;;;;;10.15;5.82;;;;;;;;;;5027449;28;20143;-61
2022/03/08 08:54:27;;;;;;;10.98;5.90;;;;;;;;;;5026956;28;20049;-60
2022/03/08 08:56:53;;;;;;;8.32;5.53;;;;;;;;;;5034929;28;20081;-61
2022/03/08 08:59:19;;;;;;;12.43;6.38;;;;;;;;;;5027080;28;20041;-61
2022/03/08 09:01:45;;;;;;;10.30;6.07;;;;;;;;;;5045504;28;20042;-61
2022/03/08 09:04:12;;;;;;;10.48;6.45;;;;;;;;;;5028679;28;20124;-61
2022/03/08 09:06:39;;;;;;;8.25;6.72;;;;;;;;;;5027632;28;20393;-61
2022/03/08 09:09:06;;;;;;;7.72;6.10;;;;;;;;;;5027852;28;20048;-62
2022/03/08 09:11:32;;;;;;;8.10;5.95;;;;;;;;;;5027869;28;20377;-61
2022/03/08 09:13:59;;;;;;;9.20;6.38;;;;;;;;;;5026332;28;20045;-60
2022/03/08 09:16:25;;;;;;;6.43;5.40;;;;;;;;;;5052338;28;20049;-61
2022/03/08 09:18:51;;;;;;;7.65;6.30;;;;;;;;;;5029914;28;20045;-61
2022/03/08 09:21:18;;;;;;;10.02;6.85;;;;;;;;;;5029931;28;20030;-62
2022/03/08 09:23:44;;;;;;;7.15;5.80;;;;;;;;;;5044747;28;20052;-63
2022/03/08 09:26:10;;;;;;;6.18;5.55;;;;;;;;;;5007847;28;20045;-62
2022/03/08 09:28:36;;;;;;;7.60;6.68;;;;;;;;;;5025961;28;20526;-62
2022/03/08 09:31:02;;;;;;;8.30;6.40;;;;;;;;;;5030172;28;20091;-62
2022/03/08 09:33:28;;;;;;;6.60;5.68;;;;;;;;;;5028336;28;20076;-62
2022/03/08 09:35:55;;;;;;;7.78;5.90;;;;;;;;;;5028305;28;20446;-61
2022/03/08 09:38:21;;;;;;;6.90;6.30;;;;;;;;;;5030273;28;20044;-62
2022/03/08 09:40:51;;;;;;;10.35;6.03;;;;;;;;;;5030906;28;20045;-61
2022/03/08 09:43:17;;;;;;;8.38;6.65;;;;;;;;;;5033994;28;20045;-62
2022/03/08 09:45:43;;;;;;;7.65;5.70;;;;;;;;;;5027520;28;20168;-60
2022/03/08 09:48:09;;;;;;;8.40;5.88;;;;;;;;;;5027370;28;20072;-61
2022/03/08 09:50:35;;;;;;;6.88;5.40;;;;;;;;;;5026762;28;21275;-61
2022/03/08 09:53:02;;;;;;;7.43;5.43;;;;;;;;;;5026188;28;20033;-61
2022/03/08 09:55:28;;;;;;;6.43;5.28;;;;;;;;;;5027463;28;20390;-61
2022/03/08 09:57:55;;;;;;;7.93;5.68;;;;;;;;;;5027084;28;20095;-61
2022/03/08 10:00:23;;;;;;;5.65;4.53;;;;;;;;;;5026737;28;20124;-61
2022/03/08 10:02:56;;;;;;;7.40;5.70;;;;;;;;;;5026335;28;20053;-62
2022/03/08 10:05:27;;;;;;;7.05;5.15;;;;;;;;;;5027447;28;20140;-61
2022/03/08 10:08:10;;;;;;;6.18;5.30;;;;;;;;;;5027174;28;20041;-61
2022/03/08 10:11:03;;;;;;;7.10;5.13;;;;;;;;;;5029679;28;20379;-61
2022/03/08 10:13:34;;;;;;;5.50;4.60;;;;;;;;;;5013365;28;20052;-60
2022/03/08 10:16:07;;;;;;;5.10;4.15;;;;;;;;;;5028650;28;20076;-60
2022/03/08 10:18:34;;;;;;;5.67;4.63;;;;;;;;;;5028006;28;20045;-60
2022/03/08 10:21:00;;;;;;;5.15;4.60;;;;;;;;;;5027297;28;20042;-62
2022/03/08 10:23:26;;;;;;;5.05;3.83;;;;;;;;;;5028994;28;20045;-61
2022/03/08 10:25:52;;;;;;;4.25;3.85;;;;;;;;;;5028619;28;20132;-62
2022/03/08 10:28:18;;;;;;;5.18;3.88;;;;;;;;;;5026480;28;20475;-61
2022/03/08 10:30:44;;;;;;;3.80;3.50;;;;;;;;;;5026690;28;20120;-60
2022/03/08 10:33:11;;;;;;;4.30;3.90;;;;;;;;;;5026841;28;20111;-61
2022/03/08 10:35:41;;;;;;;7.47;3.97;;;;;;;;;;5026831;28;20050;-61
2022/03/08 10:38:11;;;;;;;5.53;3.92;;;;;;;;;;5026250;28;20039;-62
2022/03/08 10:40:38;;;;;;;6.97;3.78;;;;;;;;;;5026624;28;20373;-61
2022/03/08 10:43:05;;;;;;;4.95;3.38;;;;;;;;;;5026559;28;20029;-60
2022/03/08 10:45:32;;;;;;;6.40;3.90;;;;;;;;;;5024342;28;20045;-62
2022/03/08 10:47:58;;;;;;;9.68;3.75;;;;;;;;;;5049587;28;20053;-60
2022/03/08 10:50:28;;;;;;;4.53;3.20;;;;;;;;;;5026613;28;20041;-61
2022/03/08 10:52:55;;;;;;;6.13;3.75;;;;;;;;;;5027489;28;20049;-60
2022/03/08 10:55:29;;;;;;;5.55;4.60;;;;;;;;;;5025813;28;20099;-60
2022/03/08 10:57:59;;;;;;;4.72;3.70;;;;;;;;;;5025949;28;20542;-61
2022/03/08 11:00:30;;;;;;;5.47;3.90;;;;;;;;;;5026791;28;20045;-61
2022/03/08 11:02:57;;;;;;;4.10;3.28;;;;;;;;;;5025634;28;20446;-60
2022/03/08 11:05:30;;;;;;;4.13;3.40;;;;;;;;;;5026509;28;20045;-60
2022/03/08 11:07:57;;;;;;;4.53;3.63;;;;;;;;;;5025592;28;20128;-61
2022/03/08 11:10:24;;;;;;;4.22;3.30;;;;;;;;;;5009625;28;20076;-61
2022/03/08 11:12:50;;;;;;;5.80;3.60;;;;;;;;;;5026409;28;20076;-61
2022/03/08 11:15:17;;;;;;;4.47;3.15;;;;;;;;;;5008363;28;20046;-61
2022/03/08 11:17:44;;;;;;;5.45;3.47;;;;;;;;;;5027011;28;20087;-61
2022/03/08 11:20:11;;;;;;;4.97;4.03;;;;;;;;;;5027834;28;20038;-62
2022/03/08 11:22:39;;;;;;;5.03;3.63;;;;;;;;;;5029270;28;20054;-60
2022/03/08 11:25:09;;;;;;;5.00;4.45;;;;;;;;;;5031581;28;20079;-62
2022/03/08 11:27:36;;;;;;;4.75;4.25;;;;;;;;;;5031473;28;20037;-60
2022/03/08 11:30:03;;;;;;;4.63;3.05;;;;;;;;;;5031580;28;20045;-60
2022/03/08 11:32:35;;;;;;;6.22;3.42;;;;;;;;;;5030564;28;20488;-61
2022/03/08 11:35:22;;;;;;;4.72;3.70;;;;;;;;;;5028906;28;20054;-62
2022/03/08 11:37:49;;;;;;;3.45;2.95;;;;;;;;;;5017570;28;20132;-61
2022/03/08 11:40:20;;;;;;;4.30;3.05;;;;;;;;;;5029457;28;20507;-61
2022/03/08 11:42:48;;;;;;;4.15;2.70;;;;;;;;;;5028028;28;20042;-62
2022/03/08 11:45:22;;;;;;;3.58;2.47;;;;;;;;;;5028162;28;20515;-61
2022/03/08 11:47:54;;;;;;;4.82;2.60;;;;;;;;;;5028658;28;20048;-60
2022/03/08 11:50:31;;;;;;;3.20;2.50;;;;;;;;;;5029277;28;20044;-61
2022/03/08 11:53:05;;;;;;;3.80;2.53;;;;;;;;;;5013790;28;20088;-61
2022/03/08 11:55:32;;;;;;;4.10;2.40;;;;;;;;;;5030946;28;20578;-60
2022/03/08 11:57:59;;;;;;;4.80;2.80;;;;;;;;;;5012784;28;20099;-61
2022/03/08 12:00:32;;;;;;;3.42;2.33;;;;;;;;;;5030989;28;20037;-61
2022/03/08 12:03:00;;;;;;;4.30;2.70;;;;;;;;;;5031404;28;20498;-61
2022/03/08 12:05:38;;;;;;;5.18;3.05;;;;;;;;;;5033490;28;20056;-61
2022/03/08 12:08:23;;;;;;;4.75;2.83;;;;;;;;;;5052799;28;20533;-62
2022/03/08 12:10:52;;;;;;;5.60;3.92;;;;;;;;;;5029600;28;20064;-61
2022/03/08 12:13:23;;;;;;;3.53;2.47;;;;;;;;;;5032865;28;20049;-60
2022/03/08 12:16:08;;;;;;;4.15;2.70;;;;;;;;;;5031198;28;20037;-61
2022/03/08 12:18:46;;;;;;;2.70;1.92;;;;;;;;;;5032942;28;20529;-63
2022/03/08 12:21:17;;;;;;;2.80;2.42;;;;;;;;;;5031563;28;20041;-62
2022/03/08 12:23:51;;;;;;;4.25;2.92;;;;;;;;;;5030194;28;20034;-62
2022/03/08 12:26:26;;;;;;;3.55;2.55;;;;;;;;;;5030678;28;20128;-62
2022/03/08 12:29:08;;;;;;;3.65;2.65;;;;;;;;;;5030108;28;20131;-62
2022/03/08 12:31:54;;;;;;;6.22;2.38;;;;;;;;;;5027449;28;20128;-62
2022/03/08 12:34:39;;;;;;;2.95;2.22;;;;;;;;;;5026262;28;20057;-63
2022/03/08 12:37:19;;;;;;;4.25;2.50;;;;;;;;;;5029803;28;20038;-63
2022/03/08 12:39:48;;;;;;;2.80;2.38;;;;;;;;;;5029011;28;20034;-61
2022/03/08 12:42:17;;;;;;;2.22;2.03;;;;;;;;;;5028029;28;20050;-62
2022/03/08 12:44:56;;;;;;;3.75;2.15;;;;;;;;;;5029352;28;20148;-63
2022/03/08 12:47:23;;;;;;;3.72;2.40;;;;;;;;;;5030892;28;20492;-62
2022/03/08 12:49:49;;;;;;;2.75;1.75;;;;;;;;;;5029155;28;20094;-62
2022/03/08 12:52:16;;;;;;;2.85;2.03;;;;;;;;;;5030940;28;20044;-62
2022/03/08 12:54:43;;;;;;;2.88;1.77;;;;;;;;;;5030068;28;20513;-61
2022/03/08 12:57:13;;;;;;;3.95;2.25;;;;;;;;;;5029349;28;20073;-63
2022/03/08 12:59:46;;;;;;;5.18;2.40;;;;;;;;;;5029698;28;20125;-63
2022/03/08 13:02:12;;;;;;;5.88;2.15;;;;;;;;;;5028172;28;20115;-62
2022/03/08 13:04:39;;;;;;;3.22;2.30;;;;;;;;;;5039677;28;20403;-63
2022/03/08 13:07:16;;;;;;;4.65;3.13;;;;;;;;;;5026089;28;20053;-62
2022/03/08 13:09:53;;;;;;;3.35;2.28;;;;;;;;;;5039376;28;20049;-63
2022/03/08 13:12:20;;;;;;;3.50;2.47;;;;;;;;;;5028242;28;20052;-62
2022/03/08 13:15:05;;;;;;;3.83;2.58;;;;;;;;;;5029232;28;20112;-62
2022/03/08 13:17:31;;;;;;;2.92;2.20;;;;;;;;;;5049295;28;20053;-62
2022/03/08 13:19:58;;;;;;;8.73;3.63;;;;;;;;;;5023877;28;20050;-62
2022/03/08 13:22:24;;;;;;;4.70;2.90;;;;;;;;;;5028892;28;20495;-61
2022/03/08 13:25:08;;;;;;;3.17;2.25;;;;;;;;;;5027427;28;20125;-62
2022/03/08 13:27:55;;;;;;;4.30;2.55;;;;;;;;;;5043864;28;20048;-63
2022/03/08 13:30:22;;;;;;;4.75;2.38;;;;;;;;;;5028104;28;20084;-63
2022/03/08 13:32:49;;;;;;;6.18;3.08;;;;;;;;;;5028072;28;20432;-63
2022/03/08 13:35:16;;;;;;;2.83;1.98;;;;;;;;;;5060823;28;20045;-64
2022/03/08 13:37:49;;;;;;;1.90;1.23;;;;;;;;;;5026199;28;20045;-62
2022/03/08 13:40:26;;;;;;;4.00;2.85;;;;;;;;;;5043954;28;20041;-62
2022/03/08 13:42:52;;;;;;;2.63;1.10;;;;;;;;;;5045099;28;20041;-62
2022/03/08 13:45:18;;;;;;;3.22;2.10;;;;;;;;;;5027275;28;20080;-62
2022/03/08 13:47:45;;;;;;;5.88;2.42;;;;;;;;;;5028851;28;20088;-63
2022/03/08 13:50:11;;;;;;;2.92;1.90;;;;;;;;;;5028040;28;20038;-62
2022/03/08 13:52:37;;;;;;;1.80;1.17;;;;;;;;;;5044236;28;20113;-62
2022/03/08 13:55:04;;;;;;;3.17;1.90;;;;;;;;;;5026376;28;20041;-62
2022/03/08 13:57:30;;;;;;;2.53;1.63;;;;;;;;;;5010419;28;20391;-62
2022/03/08 13:59:56;;;;;;;5.25;2.28;;;;;;;;;;5026612;28;20049;-62
2022/03/08 14:02:22;;;;;;;3.38;2.05;;;;;;;;;;5027948;28;20095;-61
2022/03/08 14:04:49;;;;;;;3.55;1.60;;;;;;;;;;5026284;28;20037;-63
2022/03/08 14:07:20;;;;;;;3.30;1.88;;;;;;;;;;5026745;28;20046;-62
2022/03/08 14:09:56;;;;;;;4.93;1.92;;;;;;;;;;5025378;28;20092;-61
2022/03/08 14:12:22;;;;;;;2.30;1.50;;;;;;;;;;5047804;28;20056;-61
2022/03/08 14:15:01;;;;;;;4.07;1.75;;;;;;;;;;5024756;28;20041;-63
2022/03/08 14:17:30;;;;;;;3.05;1.83;;;;;;;;;;5026050;28;20469;-63
2022/03/08 14:19:57;;;;;;;2.05;0.95;;;;;;;;;;5048309;28;20050;-63
2022/03/08 14:22:23;;;;;;;3.38;1.83;;;;;;;;;;5041317;28;20052;-63
2022/03/08 14:24:59;;;;;;;2.50;1.80;;;;;;;;;;5026443;28;20077;-63
2022/03/08 14:27:25;;;;;;;5.13;1.85;;;;;;;;;;5026714;28;20037;-62
2022/03/08 14:30:01;;;;;;;7.30;1.40;;;;;;;;;;5026104;28;20056;-62
2022/03/08 14:32:31;;;;;;;2.92;1.30;;;;;;;;;;5024886;28;20043;-61
2022/03/08 14:35:14;;;;;;;1.77;1.17;;;;;;;;;;5026805;28;20523;-63
2022/03/08 14:37:41;;;;;;;2.03;1.08;;;;;;;;;;5043023;28;20506;-62